createdAt,value
2018-11-20T00:02:00.470Z,5.10
2018-11-20T00:04:50.360Z,5.20
2018-11-20T00:07:28.530Z,5.10
2018-11-20T00:10:16.251Z,5.10
2018-11-20T00:13:07.257Z,5.20
2018-11-20T00:15:53.179Z,5.10
2018-11-20T00:18:39.369Z,5.00
2018-11-20T00:21:25.702Z,5.00
2018-11-20T00:24:28.159Z,5.00
2018-11-20T00:27:18.352Z,5.00
2018-11-20T00:30:19.039Z,5.00
2018-11-20T00:33:06.097Z,5.00
2018-11-20T00:35:49.674Z,4.90
2018-11-20T00:38:46.109Z,5.00
2018-11-20T00:41:49.073Z,4.90
2018-11-20T00:44:34.878Z,5.00
2018-11-20T00:47:21.265Z,5.00
2018-11-20T00:50:26.745Z,5.10
2018-11-20T00:53:12.415Z,5.20
2018-11-20T00:56:25.424Z,5.10
2018-11-20T00:59:12.888Z,5.20
2018-11-20T01:01:58.808Z,5.00
2018-11-20T01:04:45.149Z,5.00
2018-11-20T01:07:31.299Z,5.00
2018-11-20T01:10:11.828Z,5.00
2018-11-20T01:12:59.648Z,4.90
2018-11-20T01:15:58.716Z,4.90
2018-11-20T01:18:48.965Z,4.80
2018-11-20T01:21:34.840Z,4.80
2018-11-20T01:24:20.557Z,4.80
2018-11-20T01:27:23.108Z,4.80
2018-11-20T01:30:08.762Z,4.80
2018-11-20T01:32:54.771Z,4.80
2018-11-20T01:35:45.268Z,4.80
2018-11-20T01:38:33.127Z,4.90
2018-11-20T01:41:19.250Z,4.90
2018-11-20T01:44:06.665Z,4.80
2018-11-20T01:47:11.586Z,4.80
2018-11-20T01:49:53.896Z,4.70
2018-11-20T01:52:48.063Z,4.70
2018-11-20T01:55:45.884Z,4.70
2018-11-20T01:58:25.657Z,4.80
2018-11-20T02:01:22.112Z,4.80
2018-11-20T02:04:04.161Z,4.70
2018-11-20T02:06:55.546Z,4.60
2018-11-20T02:09:36.764Z,4.50
2018-11-20T02:12:33.665Z,4.60
2018-11-20T02:15:18.937Z,4.60
2018-11-20T02:18:25.646Z,4.60
2018-11-20T02:21:31.110Z,4.60
2018-11-20T02:24:16.409Z,4.50
2018-11-20T02:27:00.678Z,4.60
2018-11-20T02:29:47.289Z,4.60
2018-11-20T02:32:34.782Z,4.50
2018-11-20T02:35:23.265Z,4.50
2018-11-20T02:38:16.676Z,4.50
2018-11-20T02:41:00.641Z,4.50
2018-11-20T02:43:50.713Z,4.50
2018-11-20T02:46:43.484Z,4.50
2018-11-20T02:49:22.412Z,4.60
2018-11-20T02:52:09.894Z,4.60
2018-11-20T02:55:10.501Z,4.70
2018-11-20T02:57:54.092Z,4.60
2018-11-20T03:00:40.374Z,4.50
2018-11-20T03:03:45.718Z,4.50
2018-11-20T03:06:31.976Z,4.50
2018-11-20T03:09:28.190Z,4.40
2018-11-20T03:12:14.382Z,4.40
2018-11-20T03:15:00.525Z,4.40
2018-11-20T03:17:45.949Z,4.40
2018-11-20T03:20:45.797Z,4.40
2018-11-20T03:23:36.028Z,4.30
2018-11-20T03:26:20.901Z,4.20
2018-11-20T03:29:59.543Z,4.20
2018-11-20T03:32:41.209Z,4.20
2018-11-20T03:35:27.044Z,4.30
2018-11-20T03:38:20.550Z,4.30
2018-11-20T03:41:19.838Z,4.20
2018-11-20T03:44:05.888Z,4.30
2018-11-20T03:47:00.861Z,4.30
2018-11-20T03:49:49.847Z,4.30
2018-11-20T03:52:49.407Z,4.40
2018-11-20T03:55:36.570Z,4.30
2018-11-20T03:58:24.484Z,4.30
2018-11-20T04:01:15.902Z,4.20
2018-11-20T04:03:58.066Z,4.30
2018-11-20T04:06:44.820Z,4.30
2018-11-20T04:09:26.313Z,4.30
2018-11-20T04:12:16.355Z,4.30
2018-11-20T04:14:56.003Z,4.30
2018-11-20T04:17:36.431Z,4.20
2018-11-20T04:20:35.720Z,4.30
2018-11-20T04:23:26.745Z,4.40
2018-11-20T04:26:16.987Z,4.40
2018-11-20T04:29:23.131Z,4.30
2018-11-20T04:32:27.496Z,4.30
2018-11-20T04:35:19.989Z,4.40
2018-11-20T04:38:08.173Z,4.40
2018-11-20T04:41:14.234Z,4.20
2018-11-20T04:44:05.999Z,4.30
2018-11-20T04:46:56.043Z,4.30
2018-11-20T04:49:33.677Z,4.30
2018-11-20T04:52:27.765Z,4.30
2018-11-20T04:55:14.302Z,4.30
2018-11-20T04:58:01.814Z,4.20
2018-11-20T05:00:47.980Z,4.20
2018-11-20T05:03:49.865Z,4.10
2018-11-20T05:06:28.008Z,4.20
2018-11-20T05:09:13.823Z,4.30
2018-11-20T05:11:58.169Z,4.30
2018-11-20T05:14:42.508Z,4.20
2018-11-20T05:17:31.120Z,4.20
2018-11-20T05:20:17.642Z,4.20
2018-11-20T05:23:05.127Z,4.20
2018-11-20T05:25:52.601Z,4.30
2018-11-20T05:28:39.561Z,4.20
2018-11-20T05:31:29.907Z,4.30
2018-11-20T05:34:17.707Z,4.30
2018-11-20T05:37:01.829Z,4.30
2018-11-20T05:40:07.547Z,4.40
2018-11-20T05:42:49.632Z,4.30
2018-11-20T05:45:45.773Z,4.30
2018-11-20T05:48:31.956Z,4.30
2018-11-20T05:51:31.584Z,4.30
2018-11-20T05:54:17.551Z,4.30
2018-11-20T05:57:03.432Z,4.20
2018-11-20T05:59:49.731Z,4.30
2018-11-20T06:02:35.776Z,4.30
2018-11-20T06:05:27.300Z,4.40
2018-11-20T06:08:17.474Z,4.40
2018-11-20T06:12:21.550Z,4.30
2018-11-20T06:15:17.189Z,4.30
2018-11-20T06:18:04.401Z,4.30
2018-11-20T06:20:49.953Z,4.30
2018-11-20T06:23:35.026Z,4.40
2018-11-20T06:26:20.118Z,4.30
2018-11-20T06:29:21.574Z,4.40
2018-11-20T06:32:08.283Z,4.40
2018-11-20T06:34:53.704Z,4.40
2018-11-20T06:37:49.210Z,4.30
2018-11-20T06:40:41.014Z,4.40
2018-11-20T06:43:37.580Z,4.40
2018-11-20T06:46:30.207Z,4.50
2018-11-20T06:49:05.053Z,4.50
2018-11-20T06:52:00.385Z,4.40
2018-11-20T06:54:44.760Z,4.40
2018-11-20T06:57:25.151Z,4.40
2018-11-20T07:00:13.066Z,4.30
2018-11-20T07:02:58.401Z,4.40
2018-11-20T07:05:45.431Z,4.30
2018-11-20T07:08:30.296Z,4.30
2018-11-20T07:11:15.820Z,4.40
2018-11-20T07:14:23.109Z,4.40
2018-11-20T07:17:29.667Z,4.50
2018-11-20T07:20:23.279Z,4.50
2018-11-20T07:23:22.066Z,4.60
2018-11-20T07:26:14.790Z,4.50
2018-11-20T07:29:13.469Z,4.60
2018-11-20T07:31:54.922Z,4.60
2018-11-20T07:34:44.249Z,4.60
2018-11-20T07:37:26.651Z,4.70
2018-11-20T07:40:11.744Z,4.50
2018-11-20T07:42:56.752Z,4.60
2018-11-20T07:45:44.062Z,4.50
2018-11-20T07:48:30.849Z,4.50
2018-11-20T07:51:17.706Z,4.60
2018-11-20T07:54:10.633Z,4.60
2018-11-20T07:57:15.218Z,4.70
2018-11-20T08:00:16.707Z,4.70
2018-11-20T08:03:00.895Z,4.80
2018-11-20T08:05:48.322Z,4.80
2018-11-20T08:08:40.877Z,4.70
2018-11-20T08:11:45.711Z,4.70
2018-11-20T08:14:31.178Z,4.70
2018-11-20T08:17:33.110Z,4.80
2018-11-20T08:20:41.684Z,4.80
2018-11-20T08:23:30.529Z,4.90
2018-11-20T08:26:11.311Z,4.80
2018-11-20T08:29:13.693Z,4.80
2018-11-20T08:32:03.126Z,4.80
2018-11-20T08:34:52.371Z,4.90
2018-11-20T08:37:37.655Z,4.90
2018-11-20T08:40:36.080Z,4.90
2018-11-20T08:43:28.061Z,5.00
2018-11-20T08:46:23.881Z,5.00
2018-11-20T08:49:28.468Z,5.20
2018-11-20T08:52:27.208Z,5.30
2018-11-20T08:58:21.628Z,5.20
2018-11-20T09:01:06.667Z,5.20
2018-11-20T09:03:43.206Z,5.10
2018-11-20T09:06:35.861Z,5.10
2018-11-20T09:09:21.584Z,5.10
2018-11-20T09:12:12.539Z,5.30
2018-11-20T09:15:08.168Z,5.30
2018-11-20T09:17:57.094Z,5.30
2018-11-20T09:20:45.674Z,5.40
2018-11-20T09:23:34.879Z,5.40
2018-11-20T09:26:17.397Z,5.50
2018-11-20T09:29:02.718Z,5.50
2018-11-20T09:31:55.668Z,5.50
2018-11-20T09:34:52.250Z,5.60
2018-11-20T09:37:29.281Z,5.60
2018-11-20T09:40:52.565Z,5.70
2018-11-20T09:43:43.721Z,5.70
2018-11-20T09:46:42.522Z,5.80
2018-11-20T09:49:29.102Z,5.90
2018-11-20T09:52:14.904Z,6.00
2018-11-20T09:55:12.391Z,5.80
2018-11-20T09:58:02.412Z,5.80
2018-11-20T10:01:01.759Z,5.90
2018-11-20T10:03:52.878Z,5.90
2018-11-20T10:07:00.578Z,6.00
2018-11-20T10:10:01.443Z,6.00
2018-11-20T10:12:51.708Z,6.00
2018-11-20T10:15:51.957Z,6.00
2018-11-20T10:18:52.061Z,6.00
2018-11-20T10:21:43.620Z,6.00
2018-11-20T10:24:30.845Z,6.10
2018-11-20T10:27:17.729Z,6.20
2018-11-20T10:30:06.527Z,6.30
2018-11-20T10:32:54.129Z,6.30
2018-11-20T10:35:57.353Z,6.30
2018-11-20T10:38:43.244Z,6.30
2018-11-20T10:41:23.377Z,6.30
2018-11-20T10:44:29.798Z,6.40
2018-11-20T10:47:27.801Z,6.40
2018-11-20T10:50:15.188Z,6.50
2018-11-20T10:53:18.843Z,6.40
2018-11-20T10:56:07.840Z,6.30
2018-11-20T10:59:03.446Z,6.40
2018-11-20T11:01:50.649Z,6.50
2018-11-20T11:04:37.767Z,6.50
2018-11-20T11:07:16.149Z,6.60
2018-11-20T11:09:52.575Z,6.70
2018-11-20T11:12:37.975Z,6.60
2018-11-20T11:15:33.628Z,6.60
2018-11-20T11:18:22.448Z,6.50
2018-11-20T11:21:09.852Z,6.60
2018-11-20T11:23:58.313Z,6.70
2018-11-20T11:26:44.220Z,6.70
2018-11-20T11:29:40.440Z,6.80
2018-11-20T11:32:36.008Z,6.90
2018-11-20T11:35:21.578Z,6.80
2018-11-20T11:38:09.426Z,6.90
2018-11-20T11:41:02.610Z,6.90
2018-11-20T11:43:55.163Z,6.90
2018-11-20T11:46:54.575Z,7.00
2018-11-20T11:49:50.282Z,7.10
2018-11-20T11:52:44.010Z,7.20
2018-11-20T11:55:29.262Z,7.20
2018-11-20T11:58:21.662Z,7.20
2018-11-20T12:01:08.656Z,7.20
2018-11-20T12:03:53.760Z,7.10
2018-11-20T12:06:38.791Z,7.00
2018-11-20T12:09:39.368Z,7.10
2018-11-20T12:12:24.725Z,7.10
2018-11-20T12:15:09.886Z,7.20
2018-11-20T12:17:59.309Z,7.20
2018-11-20T12:20:48.957Z,7.20
2018-11-20T12:23:53.564Z,7.30
2018-11-20T12:26:58.433Z,7.30
2018-11-20T12:29:49.587Z,7.30
2018-11-20T12:32:35.011Z,7.30
2018-11-20T12:35:20.563Z,7.20
2018-11-20T12:38:17.287Z,7.10
2018-11-20T12:41:09.735Z,7.10
2018-11-20T12:43:56.801Z,7.30
2018-11-20T12:46:41.709Z,7.30
2018-11-20T12:49:37.229Z,7.30
2018-11-20T12:52:24.066Z,7.10
2018-11-20T12:55:13.674Z,7.00
2018-11-20T12:57:50.653Z,7.00
2018-11-20T13:00:43.423Z,7.00
2018-11-20T13:03:37.058Z,7.10
2018-11-20T13:06:36.288Z,7.00
2018-11-20T13:09:30.699Z,7.10
2018-11-20T13:12:15.805Z,7.00
2018-11-20T13:15:05.314Z,7.00
2018-11-20T13:17:50.307Z,6.90
2018-11-20T13:20:45.702Z,6.90
2018-11-20T13:23:35.299Z,6.90
2018-11-20T13:26:21.985Z,6.90
2018-11-20T13:29:26.901Z,6.90
2018-11-20T13:32:12.281Z,6.90
2018-11-20T13:34:49.998Z,6.70
2018-11-20T13:37:33.753Z,6.70
2018-11-20T13:40:19.490Z,6.70
2018-11-20T13:43:18.625Z,6.80
2018-11-20T13:46:00.223Z,6.80
2018-11-20T13:48:47.293Z,6.70
2018-11-20T13:51:23.261Z,6.70
2018-11-20T13:54:11.811Z,6.70
2018-11-20T13:57:08.520Z,6.60
2018-11-20T14:00:01.316Z,6.60
2018-11-20T14:02:47.227Z,6.50
2018-11-20T14:05:33.894Z,6.50
2018-11-20T14:08:19.970Z,6.50
2018-11-20T14:11:00.332Z,6.40
2018-11-20T14:14:05.069Z,6.40
2018-11-20T14:16:50.291Z,6.30
2018-11-20T14:19:42.974Z,6.30
2018-11-20T14:22:38.806Z,6.30
2018-11-20T14:25:40.100Z,6.40
2018-11-20T14:28:25.150Z,6.40
2018-11-20T14:31:20.527Z,6.30
2018-11-20T14:34:16.759Z,6.30
2018-11-20T14:37:12.507Z,6.30
2018-11-20T14:40:13.931Z,6.20
2018-11-20T14:43:05.358Z,6.20
2018-11-20T14:46:01.134Z,6.20
2018-11-20T14:49:00.467Z,6.30
2018-11-20T14:52:05.305Z,6.20
2018-11-20T14:54:56.173Z,6.30
2018-11-20T14:57:41.522Z,6.30
2018-11-20T15:00:20.469Z,6.20
2018-11-20T15:03:05.628Z,6.10
2018-11-20T15:05:51.040Z,6.10
2018-11-20T15:08:36.127Z,6.10
2018-11-20T15:11:35.667Z,6.10
2018-11-20T15:14:20.963Z,6.10
2018-11-20T15:17:17.098Z,6.00
2018-11-20T15:20:03.760Z,6.00
2018-11-20T15:22:50.478Z,6.10
2018-11-20T15:25:55.388Z,6.10
2018-11-20T15:28:41.784Z,6.10
2018-11-20T15:31:26.847Z,6.00
2018-11-20T15:34:12.212Z,5.90
2018-11-20T15:36:57.355Z,6.00
2018-11-20T15:39:49.759Z,6.00
2018-11-20T15:42:29.633Z,5.90
2018-11-20T15:45:31.160Z,5.90
2018-11-20T15:48:14.098Z,5.90
2018-11-20T15:50:59.780Z,6.10
2018-11-20T15:53:49.126Z,6.00
2018-11-20T15:56:35.146Z,5.90
2018-11-20T15:59:25.054Z,5.90
2018-11-20T16:02:10.310Z,5.90
2018-11-20T16:04:59.667Z,6.00
2018-11-20T16:07:49.476Z,6.00
2018-11-20T16:10:26.883Z,6.00
2018-11-20T16:13:12.271Z,5.90
2018-11-20T16:15:58.946Z,5.80
2018-11-20T16:18:36.657Z,5.90
2018-11-20T16:21:35.789Z,5.90
2018-11-20T16:24:25.589Z,5.90
2018-11-20T16:27:24.529Z,5.80
2018-11-20T16:30:20.164Z,5.90
2018-11-20T16:33:06.462Z,5.80
2018-11-20T16:36:03.041Z,5.80
2018-11-20T16:39:07.162Z,5.80
2018-11-20T16:41:52.363Z,5.70
2018-11-20T16:44:40.046Z,5.70
2018-11-20T16:47:16.810Z,5.70
2018-11-20T16:50:12.873Z,5.70
2018-11-20T16:52:58.347Z,5.80
2018-11-20T16:55:55.377Z,5.80
2018-11-20T16:58:40.631Z,5.60
2018-11-20T17:01:39.189Z,5.60
2018-11-20T17:04:24.156Z,5.60
2018-11-20T17:07:11.746Z,5.50
2018-11-20T17:10:01.184Z,5.50
2018-11-20T17:12:48.013Z,5.60
2018-11-20T17:15:25.893Z,5.50
2018-11-20T17:18:14.416Z,5.50
2018-11-20T17:21:07.093Z,5.40
2018-11-20T17:23:52.335Z,5.40
2018-11-20T17:26:37.641Z,5.30
2018-11-20T17:29:27.205Z,5.40
2018-11-20T17:32:11.514Z,5.40
2018-11-20T17:35:12.983Z,5.40
2018-11-20T17:37:58.335Z,5.40
2018-11-20T17:41:03.731Z,5.40
2018-11-20T17:43:48.788Z,5.30
2018-11-20T17:46:34.318Z,5.40
2018-11-20T17:49:19.418Z,5.30
2018-11-20T17:52:04.608Z,5.30
2018-11-20T17:54:46.853Z,5.30
2018-11-20T17:57:31.457Z,5.40
2018-11-20T18:00:17.044Z,5.40
2018-11-20T18:03:02.285Z,5.30
2018-11-20T18:05:39.945Z,5.30
2018-11-20T18:08:26.627Z,5.30
2018-11-20T18:11:12.012Z,5.30
2018-11-20T18:14:01.531Z,5.40
2018-11-20T18:16:47.761Z,5.50
2018-11-20T18:19:45.463Z,5.50
2018-11-20T18:22:30.606Z,5.50
2018-11-20T18:25:29.141Z,5.60
2018-11-20T18:28:15.814Z,5.50
2018-11-20T18:31:00.866Z,5.50
2018-11-20T18:33:50.387Z,5.30
2018-11-20T18:36:35.591Z,5.20
2018-11-20T18:39:36.615Z,5.20
2018-11-20T18:42:20.096Z,5.10
2018-11-20T18:45:06.463Z,5.10
2018-11-20T18:47:50.825Z,5.00
2018-11-20T18:50:49.899Z,5.00
2018-11-20T18:53:35.306Z,5.10
2018-11-20T18:56:20.920Z,5.00
2018-11-20T18:59:15.366Z,5.10
2018-11-20T19:02:07.987Z,5.10
2018-11-20T19:05:03.654Z,5.10
2018-11-20T19:08:02.391Z,5.10
2018-11-20T19:10:49.087Z,5.20
2018-11-20T19:13:34.406Z,5.20
2018-11-20T19:16:21.106Z,5.20
2018-11-20T19:19:07.778Z,5.10
2018-11-20T19:21:54.482Z,5.20
2018-11-20T19:24:50.103Z,5.10
2018-11-20T19:27:28.035Z,5.20
2018-11-20T19:30:13.318Z,5.30
2018-11-20T19:32:58.372Z,5.30
2018-11-20T19:35:43.382Z,5.30
2018-11-20T19:38:32.907Z,5.20
2018-11-20T19:41:18.052Z,5.30
2018-11-20T19:44:03.308Z,5.30
2018-11-20T19:46:48.433Z,5.20
2018-11-20T19:49:38.288Z,5.20
2018-11-20T19:52:24.153Z,5.10
2018-11-20T19:55:13.487Z,5.10
2018-11-20T19:57:58.938Z,5.10
2018-11-20T20:00:45.639Z,5.00
2018-11-20T20:03:25.034Z,5.00
2018-11-20T20:06:13.236Z,5.10
2018-11-20T20:09:06.326Z,5.00
2018-11-20T20:11:41.757Z,5.00
2018-11-20T20:14:27.044Z,4.90
2018-11-20T20:17:19.479Z,4.90
2018-11-20T20:20:06.962Z,4.80
2018-11-20T20:23:02.613Z,4.80
2018-11-20T20:26:07.143Z,4.80
2018-11-20T20:28:56.235Z,4.70
2018-11-20T20:31:41.421Z,4.70
2018-11-20T20:34:16.508Z,4.60
2018-11-20T20:37:15.008Z,4.50
2018-11-20T20:40:09.902Z,4.50
2018-11-20T20:43:06.977Z,4.40
2018-11-20T20:45:59.611Z,4.30
2018-11-20T20:48:48.381Z,4.30
2018-11-20T20:51:33.721Z,4.30
2018-11-20T20:54:18.785Z,4.20
2018-11-20T20:57:03.830Z,4.20
2018-11-20T20:59:56.380Z,4.20
2018-11-20T21:02:41.564Z,4.10
2018-11-20T21:05:30.862Z,4.20
2018-11-20T21:08:16.162Z,4.30
2018-11-20T21:11:11.793Z,4.40
2018-11-20T21:13:56.862Z,4.50
2018-11-20T21:16:43.607Z,4.40
2018-11-20T21:19:48.489Z,4.50
2018-11-20T21:22:38.143Z,4.50
2018-11-20T21:25:18.110Z,4.50
2018-11-20T21:28:16.858Z,4.50
2018-11-20T21:31:06.584Z,4.60
2018-11-20T21:34:11.409Z,4.70
2018-11-20T21:37:06.814Z,4.70
2018-11-20T21:39:58.403Z,4.80
2018-11-20T21:42:43.685Z,4.90
2018-11-20T21:45:38.171Z,4.90
2018-11-20T21:48:23.215Z,4.90
2018-11-20T21:51:18.809Z,4.80
2018-11-20T21:54:09.919Z,4.80
2018-11-20T21:56:55.027Z,4.90
2018-11-20T22:00:09.187Z,4.80
2018-11-20T22:03:05.992Z,4.90
2018-11-20T22:05:58.890Z,4.90
2018-11-20T22:08:51.246Z,5.00
2018-11-20T22:11:36.526Z,4.90
2018-11-20T22:14:11.210Z,5.00
2018-11-20T22:16:51.178Z,5.00
2018-11-20T22:19:36.527Z,5.10
2018-11-20T22:22:21.510Z,5.10
2018-11-20T22:24:55.919Z,5.10
2018-11-20T22:27:40.990Z,5.10
2018-11-20T22:30:21.252Z,5.20
2018-11-20T22:33:16.956Z,5.10
2018-11-20T22:36:01.989Z,5.20
2018-11-20T22:38:51.444Z,5.20
2018-11-20T22:41:44.204Z,5.20
2018-11-20T22:44:29.498Z,5.20
2018-11-20T22:47:21.819Z,5.20
2018-11-20T22:49:54.802Z,5.20
2018-11-20T22:52:33.848Z,5.10
2018-11-20T22:55:19.164Z,5.00
2018-11-20T22:58:09.028Z,5.10
2018-11-20T23:00:58.302Z,5.10
2018-11-20T23:03:46.449Z,5.10
2018-11-20T23:06:32.336Z,5.20
2018-11-20T23:09:19.483Z,5.10
2018-11-20T23:11:46.610Z,5.10
2018-11-20T23:14:13.989Z,5.20
2018-11-20T23:16:41.088Z,5.10
2018-11-20T23:19:08.190Z,5.10
2018-11-20T23:21:35.337Z,5.00
2018-11-20T23:24:02.469Z,5.00
2018-11-20T23:26:29.594Z,5.00
2018-11-20T23:28:56.708Z,5.00
2018-11-20T23:31:23.846Z,4.90
2018-11-20T23:33:51.009Z,4.90
2018-11-20T23:36:18.149Z,4.80
2018-11-20T23:38:45.259Z,4.70
2018-11-20T23:41:12.927Z,4.70
2018-11-20T23:43:40.069Z,4.70
2018-11-20T23:46:07.200Z,4.70
2018-11-20T23:48:34.325Z,4.70
2018-11-20T23:51:01.530Z,4.60
2018-11-20T23:53:28.665Z,4.70
2018-11-20T23:55:55.962Z,4.70
2018-11-20T23:58:23.101Z,4.60
